sensor_id;sensor_type;location;lat;lon;timestamp;temperature;humidity
2447;DHT22;26430;48.818;9.244;2023-12-04T00:02:10;-3.00;99.90
2447;DHT22;26430;48.818;9.244;2023-12-04T00:04:36;-2.90;99.90
2447;DHT22;26430;48.818;9.244;2023-12-04T00:07:01;-3.10;99.90
2447;DHT22;26430;48.818;9.244;2023-12-04T00:09:27;-3.30;99.90
2447;DHT22;26430;48.818;9.244;2023-12-04T00:11:53;-3.20;99.90
2447;DHT22;26430;48.818;9.244;2023-12-04T00:14:19;-3.10;99.90
2447;DHT22;26430;48.818;9.244;2023-12-04T00:16:44;-2.90;99.90
2447;DHT22;26430;48.818;9.244;2023-12-04T00:19:13;-3.00;99.90
2447;DHT22;26430;48.818;9.244;2023-12-04T00:21:38;-3.10;99.90
2447;DHT22;26430;48.818;9.244;2023-12-04T00:24:04;-2.90;99.90
2447;DHT22;26430;48.818;9.244;2023-12-04T00:26:30;-2.90;99.90
2447;DHT22;26430;48.818;9.244;2023-12-04T00:28:55;-3.00;99.90
2447;DHT22;26430;48.818;9.244;2023-12-04T00:31:21;-3.00;99.90
2447;DHT22;26430;48.818;9.244;2023-12-04T00:33:46;-3.00;99.90
2447;DHT22;26430;48.818;9.244;2023-12-04T00:36:13;-3.00;99.90
2447;DHT22;26430;48.818;9.244;2023-12-04T00:38:38;-2.90;99.90
2447;DHT22;26430;48.818;9.244;2023-12-04T00:41:04;-3.00;99.90
2447;DHT22;26430;48.818;9.244;2023-12-04T00:43:30;-3.00;99.90
2447;DHT22;26430;48.818;9.244;2023-12-04T00:45:56;-3.00;99.90
2447;DHT22;26430;48.818;9.244;2023-12-04T00:48:21;-3.10;99.90
2447;DHT22;26430;48.818;9.244;2023-12-04T00:50:47;-3.10;99.90
2447;DHT22;26430;48.818;9.244;2023-12-04T00:53:13;-3.10;99.90
2447;DHT22;26430;48.818;9.244;2023-12-04T00:55:38;-3.00;99.90
2447;DHT22;26430;48.818;9.244;2023-12-04T00:58:04;-3.00;99.90
2447;DHT22;26430;48.818;9.244;2023-12-04T01:00:29;-3.10;99.90
2447;DHT22;26430;48.818;9.244;2023-12-04T01:02:55;-3.10;99.90
2447;DHT22;26430;48.818;9.244;2023-12-04T01:05:21;-3.30;99.90
2447;DHT22;26430;48.818;9.244;2023-12-04T01:07:46;-3.20;99.90
2447;DHT22;26430;48.818;9.244;2023-12-04T01:10:12;-3.20;99.90
2447;DHT22;26430;48.818;9.244;2023-12-04T01:12:37;-3.10;99.90
2447;DHT22;26430;48.818;9.244;2023-12-04T01:15:03;-3.10;99.90
2447;DHT22;26430;48.818;9.244;2023-12-04T01:17:29;-3.10;99.90
2447;DHT22;26430;48.818;9.244;2023-12-04T01:19:54;-3.10;99.90
2447;DHT22;26430;48.818;9.244;2023-12-04T01:22:20;-3.10;99.90
2447;DHT22;26430;48.818;9.244;2023-12-04T01:24:45;-3.10;99.90
2447;DHT22;26430;48.818;9.244;2023-12-04T01:27:11;-3.10;99.90
2447;DHT22;26430;48.818;9.244;2023-12-04T01:29:37;-3.20;99.90
2447;DHT22;26430;48.818;9.244;2023-12-04T01:32:02;-3.20;99.90
2447;DHT22;26430;48.818;9.244;2023-12-04T01:34:28;-3.40;99.90
2447;DHT22;26430;48.818;9.244;2023-12-04T01:36:53;-3.30;99.90
2447;DHT22;26430;48.818;9.244;2023-12-04T01:39:19;-3.20;99.90
2447;DHT22;26430;48.818;9.244;2023-12-04T01:41:44;-3.30;99.90
2447;DHT22;26430;48.818;9.244;2023-12-04T01:44:10;-3.40;99.90
2447;DHT22;26430;48.818;9.244;2023-12-04T01:46:37;-3.30;99.90
2447;DHT22;26430;48.818;9.244;2023-12-04T01:49:02;-3.40;99.90
2447;DHT22;26430;48.818;9.244;2023-12-04T01:51:28;-3.30;99.90
2447;DHT22;26430;48.818;9.244;2023-12-04T01:53:57;-3.50;99.90
2447;DHT22;26430;48.818;9.244;2023-12-04T01:56:23;-3.40;99.90
2447;DHT22;26430;48.818;9.244;2023-12-04T01:58:49;-3.50;99.90
2447;DHT22;26430;48.818;9.244;2023-12-04T02:01:15;-3.60;99.90
2447;DHT22;26430;48.818;9.244;2023-12-04T02:03:41;-3.70;99.90
2447;DHT22;26430;48.818;9.244;2023-12-04T02:06:07;-3.70;99.90
2447;DHT22;26430;48.818;9.244;2023-12-04T02:08:35;-3.70;99.90
2447;DHT22;26430;48.818;9.244;2023-12-04T02:11:00;-3.70;99.90
2447;DHT22;26430;48.818;9.244;2023-12-04T02:13:26;-3.50;99.90
2447;DHT22;26430;48.818;9.244;2023-12-04T02:15:54;-3.50;99.90
2447;DHT22;26430;48.818;9.244;2023-12-04T02:18:23;-3.40;99.90
2447;DHT22;26430;48.818;9.244;2023-12-04T02:20:49;-3.40;99.90
2447;DHT22;26430;48.818;9.244;2023-12-04T02:23:14;-3.30;99.90
2447;DHT22;26430;48.818;9.244;2023-12-04T02:25:40;-3.20;99.90
2447;DHT22;26430;48.818;9.244;2023-12-04T02:28:06;-3.20;99.90
2447;DHT22;26430;48.818;9.244;2023-12-04T02:30:34;-3.20;99.90
2447;DHT22;26430;48.818;9.244;2023-12-04T02:33:05;-3.20;99.90
2447;DHT22;26430;48.818;9.244;2023-12-04T02:35:33;-3.20;99.90
2447;DHT22;26430;48.818;9.244;2023-12-04T02:38:00;-3.20;99.90
2447;DHT22;26430;48.818;9.244;2023-12-04T02:40:26;-3.30;99.90
2447;DHT22;26430;48.818;9.244;2023-12-04T02:42:52;-3.40;99.90
2447;DHT22;26430;48.818;9.244;2023-12-04T02:45:18;-3.60;99.90
2447;DHT22;26430;48.818;9.244;2023-12-04T02:47:43;-3.70;99.90
2447;DHT22;26430;48.818;9.244;2023-12-04T02:50:09;-3.70;99.90
2447;DHT22;26430;48.818;9.244;2023-12-04T02:52:34;-3.60;99.90
2447;DHT22;26430;48.818;9.244;2023-12-04T02:55:00;-3.50;99.90
2447;DHT22;26430;48.818;9.244;2023-12-04T02:57:25;-3.50;99.90
2447;DHT22;26430;48.818;9.244;2023-12-04T02:59:51;-3.50;99.90
2447;DHT22;26430;48.818;9.244;2023-12-04T03:02:16;-3.60;99.90
2447;DHT22;26430;48.818;9.244;2023-12-04T03:04:42;-3.60;99.90
2447;DHT22;26430;48.818;9.244;2023-12-04T03:07:08;-3.60;99.90
2447;DHT22;26430;48.818;9.244;2023-12-04T03:09:33;-3.70;99.90
2447;DHT22;26430;48.818;9.244;2023-12-04T03:11:59;-3.60;99.90
2447;DHT22;26430;48.818;9.244;2023-12-04T03:14:24;-3.50;99.90
2447;DHT22;26430;48.818;9.244;2023-12-04T03:16:50;-3.60;99.90
2447;DHT22;26430;48.818;9.244;2023-12-04T03:19:16;-3.60;99.90
2447;DHT22;26430;48.818;9.244;2023-12-04T03:21:41;-3.70;99.90
2447;DHT22;26430;48.818;9.244;2023-12-04T03:24:07;-3.80;99.90
2447;DHT22;26430;48.818;9.244;2023-12-04T03:26:32;-3.90;99.90
2447;DHT22;26430;48.818;9.244;2023-12-04T03:28:58;-4.20;99.90
2447;DHT22;26430;48.818;9.244;2023-12-04T03:31:23;-4.20;99.90
2447;DHT22;26430;48.818;9.244;2023-12-04T03:33:49;-4.20;99.90
2447;DHT22;26430;48.818;9.244;2023-12-04T03:36:15;-4.20;99.90
2447;DHT22;26430;48.818;9.244;2023-12-04T03:38:40;-4.20;99.90
2447;DHT22;26430;48.818;9.244;2023-12-04T03:41:14;-4.10;99.90
2447;DHT22;26430;48.818;9.244;2023-12-04T03:43:40;-4.10;99.90
2447;DHT22;26430;48.818;9.244;2023-12-04T03:46:06;-4.00;99.90
2447;DHT22;26430;48.818;9.244;2023-12-04T03:48:31;-3.90;99.90
2447;DHT22;26430;48.818;9.244;2023-12-04T03:50:57;-3.90;99.90
2447;DHT22;26430;48.818;9.244;2023-12-04T03:53:22;-3.80;99.90
2447;DHT22;26430;48.818;9.244;2023-12-04T03:55:48;-4.20;99.90
2447;DHT22;26430;48.818;9.244;2023-12-04T03:58:13;-4.10;99.90
2447;DHT22;26430;48.818;9.244;2023-12-04T04:00:39;-4.20;99.90
2447;DHT22;26430;48.818;9.244;2023-12-04T04:03:07;-4.00;99.90
2447;DHT22;26430;48.818;9.244;2023-12-04T04:05:33;-4.00;99.90
2447;DHT22;26430;48.818;9.244;2023-12-04T04:08:00;-4.10;99.90
2447;DHT22;26430;48.818;9.244;2023-12-04T04:10:25;-4.20;99.90
2447;DHT22;26430;48.818;9.244;2023-12-04T04:12:51;-4.30;99.90
2447;DHT22;26430;48.818;9.244;2023-12-04T04:15:16;-4.40;99.90
2447;DHT22;26430;48.818;9.244;2023-12-04T04:17:42;-4.30;99.90
2447;DHT22;26430;48.818;9.244;2023-12-04T04:20:08;-4.10;99.90
2447;DHT22;26430;48.818;9.244;2023-12-04T04:22:34;-4.10;99.90
2447;DHT22;26430;48.818;9.244;2023-12-04T04:25:04;-4.30;99.90
2447;DHT22;26430;48.818;9.244;2023-12-04T04:27:30;-4.50;99.90
2447;DHT22;26430;48.818;9.244;2023-12-04T04:29:55;-4.30;99.90
2447;DHT22;26430;48.818;9.244;2023-12-04T04:32:21;-4.30;99.90
2447;DHT22;26430;48.818;9.244;2023-12-04T04:38:09;-4.20;99.90
2447;DHT22;26430;48.818;9.244;2023-12-04T04:40:35;-4.20;99.90
2447;DHT22;26430;48.818;9.244;2023-12-04T04:43:00;-4.10;99.90
2447;DHT22;26430;48.818;9.244;2023-12-04T04:45:26;-4.30;99.90
2447;DHT22;26430;48.818;9.244;2023-12-04T04:47:51;-4.20;99.90
2447;DHT22;26430;48.818;9.244;2023-12-04T04:50:17;-4.10;99.90
2447;DHT22;26430;48.818;9.244;2023-12-04T04:52:42;-4.10;99.90
2447;DHT22;26430;48.818;9.244;2023-12-04T04:55:08;-4.10;99.90
2447;DHT22;26430;48.818;9.244;2023-12-04T04:57:34;-4.20;99.90
2447;DHT22;26430;48.818;9.244;2023-12-04T04:59:59;-4.00;99.90
2447;DHT22;26430;48.818;9.244;2023-12-04T05:02:25;-4.20;99.90
2447;DHT22;26430;48.818;9.244;2023-12-04T05:04:50;-4.10;99.90
2447;DHT22;26430;48.818;9.244;2023-12-04T05:07:16;-4.20;99.90
2447;DHT22;26430;48.818;9.244;2023-12-04T05:09:41;-4.30;99.90
2447;DHT22;26430;48.818;9.244;2023-12-04T05:12:07;-4.30;99.90
2447;DHT22;26430;48.818;9.244;2023-12-04T05:14:32;-4.40;99.90
2447;DHT22;26430;48.818;9.244;2023-12-04T05:16:58;-4.30;99.90
2447;DHT22;26430;48.818;9.244;2023-12-04T05:19:24;-4.30;99.90
2447;DHT22;26430;48.818;9.244;2023-12-04T05:21:49;-4.10;99.90
2447;DHT22;26430;48.818;9.244;2023-12-04T05:24:15;-4.00;99.90
2447;DHT22;26430;48.818;9.244;2023-12-04T05:26:40;-4.10;99.90
2447;DHT22;26430;48.818;9.244;2023-12-04T05:29:06;-4.00;99.90
2447;DHT22;26430;48.818;9.244;2023-12-04T05:31:31;-4.00;99.90
2447;DHT22;26430;48.818;9.244;2023-12-04T05:33:57;-4.10;99.90
2447;DHT22;26430;48.818;9.244;2023-12-04T05:36:22;-3.90;99.90
2447;DHT22;26430;48.818;9.244;2023-12-04T05:38:48;-3.70;99.90
2447;DHT22;26430;48.818;9.244;2023-12-04T05:41:13;-3.60;99.90
2447;DHT22;26430;48.818;9.244;2023-12-04T05:43:39;-3.50;99.90
2447;DHT22;26430;48.818;9.244;2023-12-04T05:46:05;-3.30;99.90
2447;DHT22;26430;48.818;9.244;2023-12-04T05:48:30;-3.30;99.90
2447;DHT22;26430;48.818;9.244;2023-12-04T05:50:56;-3.30;99.90
2447;DHT22;26430;48.818;9.244;2023-12-04T05:53:21;-3.20;99.90
2447;DHT22;26430;48.818;9.244;2023-12-04T05:55:47;-3.10;99.90
2447;DHT22;26430;48.818;9.244;2023-12-04T05:58:12;-3.10;99.90
2447;DHT22;26430;48.818;9.244;2023-12-04T06:00:38;-3.10;99.90
2447;DHT22;26430;48.818;9.244;2023-12-04T06:03:03;-3.00;99.90
2447;DHT22;26430;48.818;9.244;2023-12-04T06:05:29;-3.00;99.90
2447;DHT22;26430;48.818;9.244;2023-12-04T06:07:54;-3.10;99.90
2447;DHT22;26430;48.818;9.244;2023-12-04T06:10:20;-3.20;99.90
2447;DHT22;26430;48.818;9.244;2023-12-04T06:12:46;-3.20;99.90
2447;DHT22;26430;48.818;9.244;2023-12-04T06:15:11;-3.30;99.90
2447;DHT22;26430;48.818;9.244;2023-12-04T06:17:37;-3.30;99.90
2447;DHT22;26430;48.818;9.244;2023-12-04T06:20:02;-3.30;99.90
2447;DHT22;26430;48.818;9.244;2023-12-04T06:22:28;-3.40;99.90
2447;DHT22;26430;48.818;9.244;2023-12-04T06:24:54;-3.50;99.90
2447;DHT22;26430;48.818;9.244;2023-12-04T06:27:20;-3.40;99.90
2447;DHT22;26430;48.818;9.244;2023-12-04T06:29:46;-3.40;99.90
2447;DHT22;26430;48.818;9.244;2023-12-04T06:32:13;-3.60;99.90
2447;DHT22;26430;48.818;9.244;2023-12-04T06:34:39;-3.60;99.90
2447;DHT22;26430;48.818;9.244;2023-12-04T06:37:09;-3.50;99.90
2447;DHT22;26430;48.818;9.244;2023-12-04T06:39:37;-3.50;99.90
2447;DHT22;26430;48.818;9.244;2023-12-04T06:42:05;-3.50;99.90
2447;DHT22;26430;48.818;9.244;2023-12-04T06:44:30;-3.60;99.90
2447;DHT22;26430;48.818;9.244;2023-12-04T06:46:59;-3.70;99.90
2447;DHT22;26430;48.818;9.244;2023-12-04T06:49:29;-3.60;99.90
2447;DHT22;26430;48.818;9.244;2023-12-04T06:51:55;-3.50;99.90
2447;DHT22;26430;48.818;9.244;2023-12-04T06:54:20;-3.50;99.90
2447;DHT22;26430;48.818;9.244;2023-12-04T06:56:46;-3.40;99.90
2447;DHT22;26430;48.818;9.244;2023-12-04T06:59:12;-3.30;99.90
2447;DHT22;26430;48.818;9.244;2023-12-04T07:01:37;-3.20;99.90
2447;DHT22;26430;48.818;9.244;2023-12-04T07:04:03;-3.10;99.90
2447;DHT22;26430;48.818;9.244;2023-12-04T07:06:35;-3.10;99.90
2447;DHT22;26430;48.818;9.244;2023-12-04T07:09:01;-3.00;99.90
2447;DHT22;26430;48.818;9.244;2023-12-04T07:11:26;-2.90;99.90
2447;DHT22;26430;48.818;9.244;2023-12-04T07:13:52;-2.70;99.90
2447;DHT22;26430;48.818;9.244;2023-12-04T07:16:17;-2.60;99.90
2447;DHT22;26430;48.818;9.244;2023-12-04T07:18:43;-2.50;99.90
2447;DHT22;26430;48.818;9.244;2023-12-04T07:21:08;-2.60;99.90
2447;DHT22;26430;48.818;9.244;2023-12-04T07:23:35;-2.80;99.90
2447;DHT22;26430;48.818;9.244;2023-12-04T07:26:00;-3.00;99.90
2447;DHT22;26430;48.818;9.244;2023-12-04T07:28:26;-2.90;99.90
2447;DHT22;26430;48.818;9.244;2023-12-04T07:30:53;-2.90;99.90
2447;DHT22;26430;48.818;9.244;2023-12-04T07:33:19;-3.00;99.90
2447;DHT22;26430;48.818;9.244;2023-12-04T07:35:44;-3.00;99.90
2447;DHT22;26430;48.818;9.244;2023-12-04T07:38:10;-3.10;99.90
2447;DHT22;26430;48.818;9.244;2023-12-04T07:40:35;-3.10;99.90
2447;DHT22;26430;48.818;9.244;2023-12-04T07:43:01;-3.10;99.90
2447;DHT22;26430;48.818;9.244;2023-12-04T07:45:27;-2.90;99.90
2447;DHT22;26430;48.818;9.244;2023-12-04T07:47:53;-2.90;99.90
2447;DHT22;26430;48.818;9.244;2023-12-04T07:50:19;-3.20;99.90
2447;DHT22;26430;48.818;9.244;2023-12-04T07:52:44;-3.00;99.90
2447;DHT22;26430;48.818;9.244;2023-12-04T07:55:10;-3.00;99.90
2447;DHT22;26430;48.818;9.244;2023-12-04T07:57:35;-2.90;99.90
2447;DHT22;26430;48.818;9.244;2023-12-04T08:00:01;-2.90;99.90
2447;DHT22;26430;48.818;9.244;2023-12-04T08:02:26;-2.80;99.90
2447;DHT22;26430;48.818;9.244;2023-12-04T08:04:52;-2.70;99.90
2447;DHT22;26430;48.818;9.244;2023-12-04T08:07:18;-2.60;99.90
2447;DHT22;26430;48.818;9.244;2023-12-04T08:09:44;-2.60;99.90
2447;DHT22;26430;48.818;9.244;2023-12-04T08:12:10;-2.40;99.90
2447;DHT22;26430;48.818;9.244;2023-12-04T08:14:35;-2.50;99.90
2447;DHT22;26430;48.818;9.244;2023-12-04T08:17:01;-2.60;99.90
2447;DHT22;26430;48.818;9.244;2023-12-04T08:19:26;-3.00;99.90
2447;DHT22;26430;48.818;9.244;2023-12-04T08:21:52;-3.10;99.90
2447;DHT22;26430;48.818;9.244;2023-12-04T08:24:17;-3.20;99.90
2447;DHT22;26430;48.818;9.244;2023-12-04T08:26:45;-3.40;99.90
2447;DHT22;26430;48.818;9.244;2023-12-04T08:29:11;-3.30;99.90
2447;DHT22;26430;48.818;9.244;2023-12-04T08:31:37;-3.20;99.90
2447;DHT22;26430;48.818;9.244;2023-12-04T08:34:02;-3.10;99.90
2447;DHT22;26430;48.818;9.244;2023-12-04T08:36:28;-3.10;99.90
2447;DHT22;26430;48.818;9.244;2023-12-04T08:38:53;-2.90;99.90
2447;DHT22;26430;48.818;9.244;2023-12-04T08:41:20;-2.90;99.90
2447;DHT22;26430;48.818;9.244;2023-12-04T08:43:45;-3.00;99.90
2447;DHT22;26430;48.818;9.244;2023-12-04T08:46:14;-3.10;99.90
2447;DHT22;26430;48.818;9.244;2023-12-04T08:48:43;-3.10;99.90
2447;DHT22;26430;48.818;9.244;2023-12-04T08:51:15;-2.90;99.90
2447;DHT22;26430;48.818;9.244;2023-12-04T08:53:41;-2.90;99.90
2447;DHT22;26430;48.818;9.244;2023-12-04T08:56:07;-2.80;99.90
2447;DHT22;26430;48.818;9.244;2023-12-04T08:58:32;-2.80;99.90
2447;DHT22;26430;48.818;9.244;2023-12-04T09:00:58;-2.70;99.90
2447;DHT22;26430;48.818;9.244;2023-12-04T09:03:23;-2.70;99.90
2447;DHT22;26430;48.818;9.244;2023-12-04T09:05:50;-2.70;99.90
2447;DHT22;26430;48.818;9.244;2023-12-04T09:08:17;-2.90;99.90
2447;DHT22;26430;48.818;9.244;2023-12-04T09:10:44;-2.90;99.90
2447;DHT22;26430;48.818;9.244;2023-12-04T09:13:10;-2.90;99.90
2447;DHT22;26430;48.818;9.244;2023-12-04T09:15:35;-2.80;99.90
2447;DHT22;26430;48.818;9.244;2023-12-04T09:18:01;-2.80;99.90
2447;DHT22;26430;48.818;9.244;2023-12-04T09:20:26;-2.80;99.90
2447;DHT22;26430;48.818;9.244;2023-12-04T09:22:52;-2.80;99.90
2447;DHT22;26430;48.818;9.244;2023-12-04T09:25:17;-2.90;99.90
2447;DHT22;26430;48.818;9.244;2023-12-04T09:27:43;-2.80;99.90
2447;DHT22;26430;48.818;9.244;2023-12-04T09:30:09;-2.90;99.90
2447;DHT22;26430;48.818;9.244;2023-12-04T09:32:35;-2.90;99.90
2447;DHT22;26430;48.818;9.244;2023-12-04T09:35:00;-2.90;99.90
2447;DHT22;26430;48.818;9.244;2023-12-04T09:37:26;-2.70;99.90
2447;DHT22;26430;48.818;9.244;2023-12-04T09:39:51;-2.60;99.90
2447;DHT22;26430;48.818;9.244;2023-12-04T09:42:18;-2.50;99.90
2447;DHT22;26430;48.818;9.244;2023-12-04T09:44:47;-2.30;99.90
2447;DHT22;26430;48.818;9.244;2023-12-04T09:47:16;-2.20;99.90
2447;DHT22;26430;48.818;9.244;2023-12-04T09:49:43;-2.30;99.90
2447;DHT22;26430;48.818;9.244;2023-12-04T09:52:10;-2.30;99.90
2447;DHT22;26430;48.818;9.244;2023-12-04T09:54:36;-2.10;99.90
2447;DHT22;26430;48.818;9.244;2023-12-04T09:57:03;-2.10;99.90
2447;DHT22;26430;48.818;9.244;2023-12-04T09:59:30;-2.10;99.90
2447;DHT22;26430;48.818;9.244;2023-12-04T10:01:57;-2.20;99.90
2447;DHT22;26430;48.818;9.244;2023-12-04T10:04:24;-2.30;99.90
2447;DHT22;26430;48.818;9.244;2023-12-04T10:06:51;-2.30;99.90
2447;DHT22;26430;48.818;9.244;2023-12-04T10:09:18;-2.20;99.90
2447;DHT22;26430;48.818;9.244;2023-12-04T10:11:47;-2.30;99.90
2447;DHT22;26430;48.818;9.244;2023-12-04T10:14:15;-2.30;99.90
2447;DHT22;26430;48.818;9.244;2023-12-04T10:16:42;-2.10;99.90
2447;DHT22;26430;48.818;9.244;2023-12-04T10:19:15;-2.00;99.90
2447;DHT22;26430;48.818;9.244;2023-12-04T10:21:49;-2.00;99.90
2447;DHT22;26430;48.818;9.244;2023-12-04T10:24:31;-1.90;99.90
2447;DHT22;26430;48.818;9.244;2023-12-04T10:26:59;-1.90;99.90
2447;DHT22;26430;48.818;9.244;2023-12-04T10:29:28;-1.80;99.90
2447;DHT22;26430;48.818;9.244;2023-12-04T10:31:54;-1.80;99.90
2447;DHT22;26430;48.818;9.244;2023-12-04T10:34:21;-1.80;99.90
2447;DHT22;26430;48.818;9.244;2023-12-04T10:36:51;-1.70;99.90
2447;DHT22;26430;48.818;9.244;2023-12-04T10:39:17;-1.70;99.90
2447;DHT22;26430;48.818;9.244;2023-12-04T10:41:43;-1.60;99.90
2447;DHT22;26430;48.818;9.244;2023-12-04T10:44:09;-1.40;99.90
2447;DHT22;26430;48.818;9.244;2023-12-04T10:46:36;-1.40;99.90
2447;DHT22;26430;48.818;9.244;2023-12-04T10:49:04;-1.30;99.90
2447;DHT22;26430;48.818;9.244;2023-12-04T10:51:30;-1.30;99.90
2447;DHT22;26430;48.818;9.244;2023-12-04T10:53:55;-1.40;99.90
2447;DHT22;26430;48.818;9.244;2023-12-04T10:56:33;-1.40;99.90
2447;DHT22;26430;48.818;9.244;2023-12-04T10:59:01;-1.20;99.90
2447;DHT22;26430;48.818;9.244;2023-12-04T11:01:29;-1.00;99.90
2447;DHT22;26430;48.818;9.244;2023-12-04T11:03:59;-1.00;99.90
2447;DHT22;26430;48.818;9.244;2023-12-04T11:06:25;-0.90;99.90
2447;DHT22;26430;48.818;9.244;2023-12-04T11:08:56;-1.10;99.90
2447;DHT22;26430;48.818;9.244;2023-12-04T11:11:27;-1.10;99.90
2447;DHT22;26430;48.818;9.244;2023-12-04T11:14:00;-0.90;99.90
2447;DHT22;26430;48.818;9.244;2023-12-04T11:16:51;-0.70;99.90
2447;DHT22;26430;48.818;9.244;2023-12-04T11:19:38;-0.60;99.90
2447;DHT22;26430;48.818;9.244;2023-12-04T11:22:07;-0.40;99.90
2447;DHT22;26430;48.818;9.244;2023-12-04T11:24:32;-0.30;99.90
2447;DHT22;26430;48.818;9.244;2023-12-04T11:26:58;-0.50;99.90
2447;DHT22;26430;48.818;9.244;2023-12-04T11:29:24;-0.50;99.90
2447;DHT22;26430;48.818;9.244;2023-12-04T11:31:50;-0.70;99.90
2447;DHT22;26430;48.818;9.244;2023-12-04T11:34:16;-0.60;99.90
2447;DHT22;26430;48.818;9.244;2023-12-04T11:36:41;-0.70;99.90
2447;DHT22;26430;48.818;9.244;2023-12-04T11:39:10;-0.60;99.90
2447;DHT22;26430;48.818;9.244;2023-12-04T11:41:36;-0.50;99.90
2447;DHT22;26430;48.818;9.244;2023-12-04T11:44:02;-0.60;99.90
2447;DHT22;26430;48.818;9.244;2023-12-04T11:46:29;-0.60;99.90
2447;DHT22;26430;48.818;9.244;2023-12-04T11:49:26;-0.50;99.90
2447;DHT22;26430;48.818;9.244;2023-12-04T11:51:53;-0.40;99.90
2447;DHT22;26430;48.818;9.244;2023-12-04T11:54:21;-0.30;99.90
2447;DHT22;26430;48.818;9.244;2023-12-04T11:59:39;-0.40;99.90
2447;DHT22;26430;48.818;9.244;2023-12-04T12:02:08;-0.20;99.90
2447;DHT22;26430;48.818;9.244;2023-12-04T12:04:33;-0.20;99.90
2447;DHT22;26430;48.818;9.244;2023-12-04T12:06:59;-0.10;99.90
2447;DHT22;26430;48.818;9.244;2023-12-04T12:09:31;0.10;99.90
2447;DHT22;26430;48.818;9.244;2023-12-04T12:12:02;-0.10;99.90
2447;DHT22;26430;48.818;9.244;2023-12-04T12:14:28;-0.10;99.90
2447;DHT22;26430;48.818;9.244;2023-12-04T12:16:55;0.10;99.90
2447;DHT22;26430;48.818;9.244;2023-12-04T12:19:20;0.10;99.90
2447;DHT22;26430;48.818;9.244;2023-12-04T12:21:48;0.10;99.90
2447;DHT22;26430;48.818;9.244;2023-12-04T12:24:15;0.10;99.90
2447;DHT22;26430;48.818;9.244;2023-12-04T12:26:41;0.20;99.90
2447;DHT22;26430;48.818;9.244;2023-12-04T12:29:08;0.30;99.90
2447;DHT22;26430;48.818;9.244;2023-12-04T12:31:34;0.60;99.90
2447;DHT22;26430;48.818;9.244;2023-12-04T12:34:00;0.50;99.90
2447;DHT22;26430;48.818;9.244;2023-12-04T12:36:25;0.60;99.90
2447;DHT22;26430;48.818;9.244;2023-12-04T12:38:51;0.60;99.90
2447;DHT22;26430;48.818;9.244;2023-12-04T12:41:17;0.50;99.90
2447;DHT22;26430;48.818;9.244;2023-12-04T12:43:43;0.20;99.90
2447;DHT22;26430;48.818;9.244;2023-12-04T12:46:10;0.20;99.90
2447;DHT22;26430;48.818;9.244;2023-12-04T12:48:35;0.10;99.90
2447;DHT22;26430;48.818;9.244;2023-12-04T12:51:04;0.00;99.90
2447;DHT22;26430;48.818;9.244;2023-12-04T12:53:34;0.00;99.90
2447;DHT22;26430;48.818;9.244;2023-12-04T12:56:00;-0.20;99.90
2447;DHT22;26430;48.818;9.244;2023-12-04T12:58:28;-0.30;99.90
2447;DHT22;26430;48.818;9.244;2023-12-04T13:00:55;-0.30;99.90
2447;DHT22;26430;48.818;9.244;2023-12-04T13:03:20;-0.10;99.90
2447;DHT22;26430;48.818;9.244;2023-12-04T13:05:46;-0.10;99.90
2447;DHT22;26430;48.818;9.244;2023-12-04T13:08:12;-0.20;99.90
2447;DHT22;26430;48.818;9.244;2023-12-04T13:10:40;-0.20;99.90
2447;DHT22;26430;48.818;9.244;2023-12-04T13:13:13;-0.20;99.90
2447;DHT22;26430;48.818;9.244;2023-12-04T13:15:39;-0.20;99.90
2447;DHT22;26430;48.818;9.244;2023-12-04T13:18:04;-0.40;99.90
2447;DHT22;26430;48.818;9.244;2023-12-04T13:20:30;-0.50;99.90
2447;DHT22;26430;48.818;9.244;2023-12-04T13:22:55;-0.60;99.90
2447;DHT22;26430;48.818;9.244;2023-12-04T13:25:21;-0.50;99.90
2447;DHT22;26430;48.818;9.244;2023-12-04T13:27:48;-0.60;99.90
2447;DHT22;26430;48.818;9.244;2023-12-04T13:30:13;-0.60;99.90
2447;DHT22;26430;48.818;9.244;2023-12-04T13:32:39;-0.30;99.90
2447;DHT22;26430;48.818;9.244;2023-12-04T13:35:05;-0.10;99.90
2447;DHT22;26430;48.818;9.244;2023-12-04T13:37:32;-0.30;99.90
2447;DHT22;26430;48.818;9.244;2023-12-04T13:39:58;-0.40;99.90
2447;DHT22;26430;48.818;9.244;2023-12-04T13:42:26;-0.40;99.90
2447;DHT22;26430;48.818;9.244;2023-12-04T13:45:11;-0.50;99.90
2447;DHT22;26430;48.818;9.244;2023-12-04T13:47:38;-0.70;99.90
2447;DHT22;26430;48.818;9.244;2023-12-04T13:50:05;-0.60;99.90
2447;DHT22;26430;48.818;9.244;2023-12-04T13:52:31;-0.70;99.90
2447;DHT22;26430;48.818;9.244;2023-12-04T13:54:59;-0.60;99.90
2447;DHT22;26430;48.818;9.244;2023-12-04T13:57:25;-0.60;99.90
2447;DHT22;26430;48.818;9.244;2023-12-04T13:59:59;-0.60;99.90
2447;DHT22;26430;48.818;9.244;2023-12-04T14:02:25;-0.50;99.90
2447;DHT22;26430;48.818;9.244;2023-12-04T14:04:51;-0.50;99.90
2447;DHT22;26430;48.818;9.244;2023-12-04T14:07:16;-0.40;99.90
2447;DHT22;26430;48.818;9.244;2023-12-04T14:09:43;-0.50;99.90
2447;DHT22;26430;48.818;9.244;2023-12-04T14:12:10;-0.40;99.90
2447;DHT22;26430;48.818;9.244;2023-12-04T14:14:36;-0.40;99.90
2447;DHT22;26430;48.818;9.244;2023-12-04T14:17:03;-0.70;99.90
2447;DHT22;26430;48.818;9.244;2023-12-04T14:19:30;-0.80;99.90
2447;DHT22;26430;48.818;9.244;2023-12-04T14:21:55;-0.70;99.90
2447;DHT22;26430;48.818;9.244;2023-12-04T14:24:21;-0.80;99.90
2447;DHT22;26430;48.818;9.244;2023-12-04T14:26:48;-0.70;99.90
2447;DHT22;26430;48.818;9.244;2023-12-04T14:29:13;-0.60;99.90
2447;DHT22;26430;48.818;9.244;2023-12-04T14:31:39;-0.60;99.90
2447;DHT22;26430;48.818;9.244;2023-12-04T14:34:05;-0.40;99.90
2447;DHT22;26430;48.818;9.244;2023-12-04T14:36:31;-0.50;99.90
2447;DHT22;26430;48.818;9.244;2023-12-04T14:38:59;-0.50;99.90
2447;DHT22;26430;48.818;9.244;2023-12-04T14:41:25;-0.70;99.90
2447;DHT22;26430;48.818;9.244;2023-12-04T14:43:51;-0.70;99.90
2447;DHT22;26430;48.818;9.244;2023-12-04T14:46:16;-0.70;99.90
2447;DHT22;26430;48.818;9.244;2023-12-04T14:48:42;-0.80;99.90
2447;DHT22;26430;48.818;9.244;2023-12-04T14:51:09;-0.80;99.90
2447;DHT22;26430;48.818;9.244;2023-12-04T14:53:40;-0.70;99.90
2447;DHT22;26430;48.818;9.244;2023-12-04T14:56:12;-0.60;99.90
2447;DHT22;26430;48.818;9.244;2023-12-04T14:58:53;-0.60;99.90
2447;DHT22;26430;48.818;9.244;2023-12-04T15:01:31;-0.60;99.90
2447;DHT22;26430;48.818;9.244;2023-12-04T15:04:23;-0.60;99.90
2447;DHT22;26430;48.818;9.244;2023-12-04T15:07:07;-0.60;99.90
2447;DHT22;26430;48.818;9.244;2023-12-04T15:10:02;-0.50;99.90
2447;DHT22;26430;48.818;9.244;2023-12-04T15:12:36;-0.50;99.90
2447;DHT22;26430;48.818;9.244;2023-12-04T15:15:21;-0.50;99.90
2447;DHT22;26430;48.818;9.244;2023-12-04T15:18:12;-0.50;99.90
2447;DHT22;26430;48.818;9.244;2023-12-04T15:20:56;-0.60;99.90
2447;DHT22;26430;48.818;9.244;2023-12-04T15:23:23;-0.60;99.90
2447;DHT22;26430;48.818;9.244;2023-12-04T15:25:48;-0.60;99.90
2447;DHT22;26430;48.818;9.244;2023-12-04T15:28:14;-0.50;99.90
2447;DHT22;26430;48.818;9.244;2023-12-04T15:30:42;-0.40;99.90
2447;DHT22;26430;48.818;9.244;2023-12-04T15:33:09;-0.40;99.90
2447;DHT22;26430;48.818;9.244;2023-12-04T15:35:35;-0.50;99.90
2447;DHT22;26430;48.818;9.244;2023-12-04T15:38:03;-0.50;99.90
2447;DHT22;26430;48.818;9.244;2023-12-04T15:40:28;-0.50;99.90
2447;DHT22;26430;48.818;9.244;2023-12-04T15:42:55;-0.40;99.90
2447;DHT22;26430;48.818;9.244;2023-12-04T15:45:21;-0.40;99.90
2447;DHT22;26430;48.818;9.244;2023-12-04T15:47:48;-0.40;99.90
2447;DHT22;26430;48.818;9.244;2023-12-04T15:50:13;-0.10;99.90
2447;DHT22;26430;48.818;9.244;2023-12-04T15:52:39;0.00;99.90